Aviation Digital Data Service (ADDS)

Output produced by METARs form (0137 UTC 14 February 2016)
found at http://aviationweather.gov/adds/metars/
 
KCAK 132341Z 1400/1424 30010KT P6SM VCSH BKN035 
     TEMPO 1400/1402 2SM -SN OVC020 
     FM140500 29006KT P6SM BKN035 
     FM141700 15008KT P6SM BKN035 OVC120